Página 1 de 3 123 ÚltimoÚltimo
Resultados 1 al 10 de 22
  1. #1
    Usuario Foroaviones
    Registro
    04 ago, 07
    Ubicación
    Ni cerca ni lejos, ni todo lo contrario
    Mensajes
    4,316

    Vueling runway excursion, Paris Orly

    Buenas,

    Me extraña no haber leído esto por aquí:

    Incident: Vueling A320 at Paris on Nov 26th 2010, runway excursion

    By Simon Hradecky, created Friday, Nov 26th 2010 23:40Z, last updated Friday, Nov 26th 2010 23:43Z
    A Vueling Airbus A320-200, registration EC-KRH performing flight VY-8077 from Barcelona,SP (Spain) to Paris Orly (France) with 96 passengers, was landing on Orly's runway 26 in snowshowers, low visibility and crosswind at 17:26L (16:26Z), when the airplane veered off the runway and came to a stop with the nose gear off the paved surface.

    The passengers disembarked onto the runway via mobile stairs and were bussed to the terminal, the runway had to be closed for about 90 minutes.

    Metars:
    LFPO 261730Z 19007KT 8000 SCT015 BKN030 00/00 Q1006 RESHSN RETS NOSIG
    LFPO 261700Z 18003KT 8000 SCT013 BKN023 00/M00 Q1006 RESHSN RETS NOSIG
    LFPO 261630Z 09003KT 060V140 1200 R02/0450U R26/P2000 R08/1700D R24/P2000 R06/1800U -SHSN SCT004 SCT013TCU BKN023 00/M00 Q1006 NOSIG
    LFPO 261600Z 36010KT 310V040 1300 R02/1800D R26/1500VP2000D R08/1100VP2000D R24/1000VP2000D R06/1300VP2000U SHSN SCT007 SCT013TCU BKN016 01/M01 Q1006 TEMPO 3000 -SHSN BKN012
    LFPO 261530Z 23006KT 6000 VCSH SCT016TCU SCT020 BKN030 03/M00 Q1006 TEMPO 3000 -SHSN BKN012
    LFPO 261500Z 26006KT 230V290 9999 VCSH FEW013TCU SCT016 BKN026 04/M01 Q1006 TEMPO 3000 -SHSN BKN012
    LFPO 261430Z 28006KT 250V310 9000 FEW013TCU SCT016 BKN023 04/M01 Q1006 TEMPO 3000 -SHSN BKN012

  2. #2
    Livin' la vida loca
    Registro
    27 jun, 07
    Ubicación
    bishops stortford
    Mensajes
    4,687
    No ha sido el unico. Un thomson tb se ha salido hoy en newcastle exa tamente por el mismo motivo



  3. #3
    Staff ForoAviones
    Registro
    29 may, 07
    Ubicación
    Madrid
    Mensajes
    7,207
    Madre mia
    La vida y la muerte:
    "La vida se defiende luchando; la muerte es el mayor premio para el valiente y el mayor castigo para el cobarde."

    "Cuanto más sudor en tiempo de paz, menos sangré en tiempo de guerra"

  4. #4
    sansestabien
    Registro
    26 ago, 08
    Mensajes
    1,802
    chic@s, yo no digo nada, pero empieza la fiesta... a ver que pasa este año en barajas.

    saludos.
    SALUDOS.

    eL qUe Se QUemA CoN lEcHE, Vé UnA VAcA y lLorA

  5. #5
    No era en CDG donde tenían problemas con cierta pista? Me suena escuchar a un piloto de AEA quejarse de que con mucha lluvia etc pasaba a ser un pasajero más cuando se aterrizaba allí.
    "God created AIRCRAFT MECHANICS so pilots can have heroes too"
    “A wise man makes his own decisions; an ignorant man follows public opinion”

  6. #6
    Yo, ni flowers
    Registro
    22 ago, 08
    Ubicación
    Estucardia
    Mensajes
    3,697
    Cita Iniciado por Borjita Ver Mensaje
    chic@s, yo no digo nada, pero empieza la fiesta... a ver que pasa este año en barajas.

    saludos.
    Esperemos que no sea tan caótico como el año pasado. Dan nieve para esta semana por allí.
    Siempre...

  7. #7
    Top Gun.
    Registro
    15 ago, 09
    Ubicación
    CVN-65.
    Mensajes
    11,662
    Cita Iniciado por Arita Ver Mensaje
    No era en CDG donde tenían problemas con cierta pista? Me suena escuchar a un piloto de AEA quejarse de que con mucha lluvia etc pasaba a ser un pasajero más cuando se aterrizaba allí.

    No me digas..... que este año voy a volar con AF desde alli
    Somos guardacostas... Nadie nos aprecia hasta que nos necesita " The guardian "
    ¡Dadme un VOR, un Radial, un DME y una Carta y volaré zero-zero hasta el mismísimo infierno!

  8. #8
    Cita Iniciado por maverick Ver Mensaje
    No me digas..... que este año voy a volar con AF desde alli
    Na, no es que se salgan todos los días xDDDD. Son cosillas que cuentan, puede ser exagerado, verdad o simplemente una mentira. Tú vete tranquilo.
    "God created AIRCRAFT MECHANICS so pilots can have heroes too"
    “A wise man makes his own decisions; an ignorant man follows public opinion”

  9. #9
    Top Gun.
    Registro
    15 ago, 09
    Ubicación
    CVN-65.
    Mensajes
    11,662
    Cita Iniciado por Arita Ver Mensaje
    Na, no es que se salgan todos los días xDDDD. Son cosillas que cuentan, puede ser exagerado, verdad o simplemente una mentira. Tú vete tranquilo.
    Gracias, de todas formas pienso de habrir un hilo contando la aventura será mi primer salto en el charco
    Somos guardacostas... Nadie nos aprecia hasta que nos necesita " The guardian "
    ¡Dadme un VOR, un Radial, un DME y una Carta y volaré zero-zero hasta el mismísimo infierno!

  10. #10
    Usuario Foroaviones
    Registro
    04 ago, 07
    Ubicación
    Ni cerca ni lejos, ni todo lo contrario
    Mensajes
    4,316
    Cita Iniciado por Arita Ver Mensaje
    No era en CDG donde tenían problemas con cierta pista? Me suena escuchar a un piloto de AEA quejarse de que con mucha lluvia etc pasaba a ser un pasajero más cuando se aterrizaba allí.
    Pero esto es Orly...

 

 
Página 1 de 3 123 ÚltimoÚltimo

Temas Similares

  1. PMDG B737-700 Takeoff Speeds - Wet Runway
    Por Dr Bender en el foro Simulación
    Respuestas: 15
    Último Mensaje: 27/01/2011, 22:33
  2. A380 Landing at LEBL Runway 7L
    Por ricarair en el foro Fotos y vídeos
    Respuestas: 20
    Último Mensaje: 03/10/2010, 23:09
  3. aquaplaning y runway slope
    Por gero en el foro Simulación
    Respuestas: 4
    Último Mensaje: 12/05/2010, 14:36
  4. lo que me ha pasado hoy aterrizando en Orly
    Por larry en el foro Simulación
    Respuestas: 5
    Último Mensaje: 29/01/2010, 15:32
  5. World's Shortest Runway
    Por TheKat en el foro Off Topic
    Respuestas: 7
    Último Mensaje: 08/11/2007, 22:55

Etiquetas para este Tema

Permisos de Publicación

  • No puedes crear nuevos temas
  • No puedes responder temas
  • No puedes subir archivos adjuntos
  • No puedes editar tus mensajes
  •